Time;durP1;ratioP1;P1;durP2;ratioP2;P2;SDS_P1;SDS_P2;PMS_P1;PMS_P2;Temp;Humidity;BMP_temperature;BMP_pressure;BME280_temperature;BME280_humidity;BME280_pressure;Samples;Min_cycle;Max_cycle;Signal;HPM_P1;HPM_P2
2021/04/10 00:00:33;;;;;;;;;;;6.40;89.80;;;;;;5026642;28;20470;-68
2021/04/10 00:02:59;;;;;;;14.50;3.95;;;6.40;89.70;;;;;;5028248;28;19919;-68
2021/04/10 00:05:26;;;;;;;12.50;4.00;;;6.40;89.90;;;;;;5029629;28;20028;-68
2021/04/10 00:07:52;;;;;;;14.73;4.03;;;6.40;89.60;;;;;;5025166;28;20065;-69
2021/04/10 00:10:19;;;;;;;15.70;4.38;;;6.40;89.60;;;;;;5028951;28;20048;-68
2021/04/10 00:12:45;;;;;;;16.40;4.60;;;6.40;89.60;;;;;;5025928;28;20761;-69
2021/04/10 00:15:14;;;;;;;11.63;4.65;;;6.40;89.20;;;;;;5030226;28;20036;-68
2021/04/10 00:17:42;;;;;;;13.73;3.83;;;6.40;89.00;;;;;;5030245;28;20036;-69
2021/04/10 00:20:13;;;;;;;15.07;4.32;;;6.40;88.90;;;;;;5026913;28;20026;-68
2021/04/10 00:22:39;;;;;;;10.63;3.25;;;6.40;89.00;;;;;;5026213;28;20033;-68
2021/04/10 00:25:18;;;;;;;17.98;4.22;;;6.30;89.30;;;;;;5029834;28;20040;-69
2021/04/10 00:27:44;;;;;;;12.27;4.18;;;6.30;89.50;;;;;;5027306;28;20033;-70
2021/04/10 00:30:13;;;;;;;13.80;3.50;;;6.30;89.60;;;;;;5028988;28;20396;-70
2021/04/10 00:32:39;;;;;;;14.10;3.90;;;6.30;89.50;;;;;;5026289;28;20112;-70
2021/04/10 00:35:06;;;;;;;20.10;3.88;;;6.30;89.60;;;;;;5028790;28;20096;-70
2021/04/10 00:37:34;;;;;;;13.27;3.65;;;6.30;89.60;;;;;;5025722;28;20025;-69
2021/04/10 00:39:59;;;;;;;12.80;3.53;;;6.30;89.70;;;;;;5027736;28;20117;-70
2021/04/10 00:42:25;;;;;;;12.55;3.40;;;6.30;89.60;;;;;;5025507;28;20112;-70
2021/04/10 00:44:51;;;;;;;11.68;3.28;;;6.30;90.00;;;;;;5008004;28;20037;-69
2021/04/10 00:47:17;;;;;;;12.00;3.38;;;6.30;89.50;;;;;;5021627;28;20030;-70
2021/04/10 00:49:42;;;;;;;18.27;4.60;;;6.30;89.70;;;;;;5028746;28;20044;-69
2021/04/10 00:52:09;;;;;;;18.90;4.38;;;6.30;89.70;;;;;;5027751;28;20025;-70
2021/04/10 00:54:37;;;;;;;11.70;3.17;;;6.30;90.00;;;;;;5029267;28;20018;-69
2021/04/10 00:57:03;;;;;;;13.07;3.80;;;6.30;90.00;;;;;;5028636;28;20556;-69
2021/04/10 00:59:29;;;;;;;8.88;4.00;;;6.20;90.20;;;;;;5029759;28;20099;-70
2021/04/10 01:01:55;;;;;;;14.57;4.70;;;6.20;90.10;;;;;;5028218;28;20042;-69
2021/04/10 01:04:22;;;;;;;12.38;3.78;;;6.20;90.10;;;;;;5032927;28;20033;-69
2021/04/10 01:06:47;;;;;;;14.98;4.10;;;6.20;90.20;;;;;;5028608;28;20043;-70
2021/04/10 01:09:13;;;;;;;12.43;3.95;;;6.20;90.30;;;;;;5028722;28;20025;-69
2021/04/10 01:12:13;;;;;;;13.45;3.85;;;6.20;90.30;;;;;;5027783;28;20037;-69
2021/04/10 01:15:02;;;;;;;7.43;3.60;;;6.20;90.40;;;;;;5029013;28;20108;-70
2021/04/10 01:17:37;;;;;;;14.80;4.55;;;6.20;90.40;;;;;;5028953;28;20112;-69
2021/04/10 01:20:29;;;;;;;10.82;3.65;;;6.20;90.30;;;;;;5033153;28;20025;-69
2021/04/10 01:23:25;;;;;;;14.77;3.58;;;6.20;90.30;;;;;;5028258;28;20030;-69
2021/04/10 01:26:00;;;;;;;12.27;4.28;;;6.20;90.30;;;;;;5026580;28;20025;-69
2021/04/10 01:28:43;;;;;;;16.23;4.20;;;6.20;90.20;;;;;;5026041;28;20037;-69
2021/04/10 01:31:10;;;;;;;12.20;3.78;;;6.20;90.20;;;;;;5029061;28;20033;-69
2021/04/10 01:33:40;;;;;;;11.75;4.90;;;6.20;90.30;;;;;;5029580;28;20517;-69
2021/04/10 01:36:16;;;;;;;10.48;4.13;;;6.20;90.20;;;;;;5027840;28;20040;-69
2021/04/10 01:38:46;;;;;;;17.95;4.85;;;6.20;90.20;;;;;;5029286;28;20022;-69
2021/04/10 01:41:14;;;;;;;11.05;3.92;;;6.20;90.10;;;;;;5030993;28;20037;-69
2021/04/10 01:43:42;;;;;;;13.73;4.25;;;6.20;90.10;;;;;;5031261;28;20452;-70
2021/04/10 01:46:08;;;;;;;13.23;4.18;;;6.20;90.10;;;;;;5045182;28;20034;-69
2021/04/10 01:48:37;;;;;;;12.00;4.18;;;6.20;90.10;;;;;;5031555;28;20398;-69
2021/04/10 01:51:04;;;;;;;11.45;3.53;;;6.20;90.10;;;;;;5030451;28;20506;-69
2021/04/10 01:53:32;;;;;;;10.52;3.53;;;6.20;90.00;;;;;;5027239;28;20037;-69
2021/04/10 01:55:59;;;;;;;10.10;3.55;;;6.20;90.00;;;;;;5028460;28;20057;-69
2021/04/10 01:58:25;;;;;;;8.10;2.95;;;6.20;90.00;;;;;;5030224;28;20032;-69
2021/04/10 02:00:53;;;;;;;13.05;4.05;;;6.20;89.70;;;;;;5029267;28;20029;-69
2021/04/10 02:03:19;;;;;;;13.95;3.58;;;6.20;89.10;;;;;;5029310;28;20029;-69
2021/04/10 02:05:51;;;;;;;8.45;2.92;;;6.20;89.30;;;;;;5029646;28;20033;-69
2021/04/10 02:08:18;;;;;;;;;;;6.10;89.30;;;;;;5032252;28;20029;-70
2021/04/10 02:10:44;;;;;;;15.07;3.65;;;6.20;89.70;;;;;;5012086;28;19948;-70
2021/04/10 02:13:12;;;;;;;14.30;3.70;;;6.10;89.70;;;;;;5030845;28;20525;-70
2021/04/10 02:15:39;;;;;;;12.85;4.55;;;6.10;89.70;;;;;;5032087;28;20486;-70
2021/04/10 02:18:04;;;;;;;12.10;4.50;;;6.10;89.80;;;;;;5033257;28;20037;-69
2021/04/10 02:20:30;;;;;;;12.07;4.20;;;6.10;90.00;;;;;;5030617;28;20064;-70
2021/04/10 02:22:57;;;;;;;12.50;4.07;;;6.10;90.00;;;;;;5030844;28;20042;-70
2021/04/10 02:25:28;;;;;;;14.15;4.38;;;6.10;90.00;;;;;;5034436;28;20029;-70
2021/04/10 02:27:54;;;;;;;11.80;4.20;;;6.10;90.10;;;;;;5029845;28;20056;-69
2021/04/10 02:30:21;;;;;;;16.88;4.78;;;6.10;90.10;;;;;;5031861;28;20056;-70
2021/04/10 02:33:16;;;;;;;14.27;3.97;;;6.10;90.10;;;;;;5032640;28;20060;-69
2021/04/10 02:35:49;;;;;;;12.70;4.25;;;6.10;90.20;;;;;;5029077;28;20088;-70
2021/04/10 02:38:22;;;;;;;13.13;4.00;;;6.10;90.20;;;;;;5030229;28;20028;-70
2021/04/10 02:40:52;;;;;;;15.27;4.68;;;6.10;90.20;;;;;;5034356;28;20479;-70
2021/04/10 02:43:32;;;;;;;16.88;5.63;;;6.00;90.20;;;;;;5028665;28;20356;-70
2021/04/10 02:46:01;;;;;;;10.50;4.78;;;6.10;90.30;;;;;;5030082;28;20068;-70
2021/04/10 02:48:34;;;;;;;11.95;5.10;;;6.00;90.30;;;;;;5028453;28;20033;-70
2021/04/10 02:51:02;;;;;;;14.18;5.20;;;6.00;90.40;;;;;;5028152;28;20044;-70
2021/04/10 02:53:32;;;;;;;10.88;4.35;;;6.00;90.50;;;;;;5030166;28;20018;-70
2021/04/10 02:55:59;;;;;;;16.83;4.57;;;6.00;90.50;;;;;;5029131;28;20057;-70
2021/04/10 02:58:28;;;;;;;12.75;4.85;;;6.00;90.50;;;;;;5029131;28;20099;-70
2021/04/10 03:00:55;;;;;;;14.90;5.47;;;6.00;90.50;;;;;;5027111;28;20028;-70
2021/04/10 03:03:23;;;;;;;18.48;4.80;;;6.00;90.50;;;;;;5027789;28;20104;-70
2021/04/10 03:05:49;;;;;;;16.75;4.68;;;6.00;90.50;;;;;;5030447;28;20156;-70
2021/04/10 03:08:20;;;;;;;13.27;4.05;;;6.00;90.50;;;;;;5031061;28;20045;-70
2021/04/10 03:10:51;;;;;;;14.48;4.38;;;6.00;90.50;;;;;;5029294;28;20033;-70
2021/04/10 03:13:19;;;;;;;14.27;4.88;;;6.00;90.50;;;;;;5032559;28;20501;-70
2021/04/10 03:15:45;;;;;;;12.75;4.07;;;6.00;90.50;;;;;;5025997;28;20116;-70
2021/04/10 03:18:12;;;;;;;13.98;4.20;;;6.00;90.40;;;;;;5027607;28;20209;-70
2021/04/10 03:20:39;;;;;;;20.08;6.20;;;6.00;90.40;;;;;;5027105;28;20033;-70
2021/04/10 03:23:05;;;;;;;14.98;4.30;;;6.00;90.40;;;;;;5027038;28;20033;-70
2021/04/10 03:25:31;;;;;;;12.18;4.03;;;6.00;90.30;;;;;;5028454;28;20124;-70
2021/04/10 03:27:57;;;;;;;14.20;4.75;;;6.00;90.30;;;;;;5028431;28;20040;-70
2021/04/10 03:30:23;;;;;;;14.52;4.30;;;5.90;90.30;;;;;;5028037;28;20037;-70
2021/04/10 03:32:50;;;;;;;14.18;4.60;;;6.00;90.30;;;;;;5028427;28;20033;-70
2021/04/10 03:35:16;;;;;;;15.75;4.65;;;6.00;90.30;;;;;;5029768;28;20345;-70
2021/04/10 03:37:42;;;;;;;15.38;4.22;;;5.90;90.30;;;;;;5010132;28;20374;-70
2021/04/10 03:40:10;;;;;;;13.20;4.47;;;5.90;90.50;;;;;;5029193;28;20387;-70
2021/04/10 03:42:41;;;;;;;10.65;3.97;;;5.90;90.30;;;;;;5029015;28;20021;-70
2021/04/10 03:45:10;;;;;;;15.13;4.25;;;5.90;90.30;;;;;;5028149;28;20044;-70
2021/04/10 03:47:36;;;;;;;16.20;4.28;;;5.90;90.20;;;;;;5028769;28;20033;-70
2021/04/10 03:50:02;;;;;;;12.38;4.43;;;5.90;90.20;;;;;;5027870;28;20042;-70
2021/04/10 03:52:28;;;;;;;18.83;4.72;;;5.90;90.10;;;;;;5026454;28;20040;-69
2021/04/10 03:54:53;;;;;;;16.13;4.28;;;5.90;89.90;;;;;;5028948;28;20025;-69
2021/04/10 03:57:19;;;;;;;18.30;4.55;;;5.90;89.80;;;;;;5026953;28;20037;-70
2021/04/10 03:59:45;;;;;;;13.25;3.63;;;5.90;90.20;;;;;;5029156;28;20112;-70
2021/04/10 04:02:11;;;;;;;14.25;4.20;;;5.90;89.90;;;;;;5024913;28;20064;-70
2021/04/10 04:04:36;;;;;;;18.30;4.82;;;5.80;89.70;;;;;;5028882;28;20034;-69
2021/04/10 04:07:03;;;;;;;12.90;4.22;;;5.80;89.70;;;;;;5030609;28;20037;-70
2021/04/10 04:09:28;;;;;;;18.23;4.70;;;5.80;89.60;;;;;;5023571;28;20046;-70
2021/04/10 04:11:54;;;;;;;16.05;4.53;;;5.80;89.80;;;;;;5028791;28;20041;-70
2021/04/10 04:14:20;;;;;;;19.15;4.13;;;5.70;89.50;;;;;;5027599;28;20029;-70
2021/04/10 04:16:46;;;;;;;16.23;4.40;;;5.80;89.60;;;;;;5028021;28;20474;-70
2021/04/10 04:19:11;;;;;;;18.73;4.20;;;5.80;89.60;;;;;;5026744;28;20021;-69
2021/04/10 04:21:37;;;;;;;11.82;4.00;;;5.80;90.00;;;;;;5027426;28;20471;-70
2021/04/10 04:24:03;;;;;;;19.48;4.38;;;5.70;89.30;;;;;;5028498;28;20029;-70
2021/04/10 04:26:29;;;;;;;18.52;4.82;;;5.70;89.20;;;;;;5026284;28;20487;-70
2021/04/10 04:28:54;;;;;;;10.70;3.70;;;5.70;89.40;;;;;;5026638;28;20192;-70
2021/04/10 04:31:20;;;;;;;13.38;3.75;;;5.70;89.50;;;;;;5029335;28;20072;-70
2021/04/10 04:33:47;;;;;;;13.75;3.55;;;5.70;89.30;;;;;;5026872;28;20499;-70
2021/04/10 04:36:14;;;;;;;10.93;3.45;;;5.70;89.30;;;;;;5005605;28;20376;-69
2021/04/10 04:38:39;;;;;;;11.88;4.07;;;5.70;89.40;;;;;;5027752;28;20030;-70
2021/04/10 04:41:05;;;;;;;17.95;3.47;;;5.70;89.80;;;;;;5028171;28;20083;-70
2021/04/10 04:43:31;;;;;;;8.52;2.90;;;5.70;88.50;;;;;;5026228;28;20466;-70
2021/04/10 04:45:56;;;;;;;15.82;3.13;;;5.70;88.50;;;;;;5026290;28;20412;-70
2021/04/10 04:48:22;;;;;;;12.43;3.08;;;5.70;88.40;;;;;;5028232;28;20264;-70
2021/04/10 04:50:48;;;;;;;13.43;3.35;;;5.70;88.10;;;;;;5029112;28;20083;-70
2021/04/10 04:53:13;;;;;;;12.55;3.35;;;5.70;88.10;;;;;;5026771;28;20021;-70
2021/04/10 04:55:40;;;;;;;14.02;3.20;;;5.70;88.10;;;;;;5025465;28;20037;-69
2021/04/10 04:58:06;;;;;;;12.07;3.08;;;5.70;88.20;;;;;;5028594;28;20036;-70
2021/04/10 05:00:31;;;;;;;14.10;3.08;;;5.70;87.90;;;;;;5027196;28;20029;-70
2021/04/10 05:02:57;;;;;;;15.02;3.78;;;5.70;87.80;;;;;;5030808;28;20104;-69
2021/04/10 05:05:23;;;;;;;9.40;3.00;;;5.70;87.90;;;;;;5030731;28;20120;-70
2021/04/10 05:07:49;;;;;;;10.95;3.25;;;5.70;88.30;;;;;;5025797;28;20033;-70
2021/04/10 05:10:14;;;;;;;13.20;3.25;;;5.80;87.90;;;;;;5027651;28;20541;-69
2021/04/10 05:12:40;;;;;;;5.28;2.60;;;5.80;87.80;;;;;;5030994;28;20030;-69
2021/04/10 05:15:07;;;;;;;13.13;2.70;;;5.80;87.40;;;;;;5032730;28;20358;-70
2021/04/10 05:17:32;;;;;;;8.98;2.80;;;5.70;87.40;;;;;;5031981;28;20099;-70
2021/04/10 05:19:58;;;;;;;11.80;2.85;;;5.70;87.40;;;;;;5031354;28;20482;-69
2021/04/10 05:22:24;;;;;;;13.70;4.10;;;5.70;87.00;;;;;;5029870;28;20036;-69
2021/04/10 05:24:49;;;;;;;9.90;3.03;;;5.70;87.00;;;;;;5013719;28;20349;-69
2021/04/10 05:27:15;;;;;;;15.07;2.97;;;5.70;86.40;;;;;;5030918;28;20507;-69
2021/04/10 05:29:41;;;;;;;14.25;3.65;;;5.70;86.10;;;;;;5031063;28;20100;-70
2021/04/10 05:32:07;;;;;;;13.75;2.90;;;5.70;86.20;;;;;;5031742;28;20069;-70
2021/04/10 05:34:32;;;;;;;13.77;3.58;;;5.70;86.50;;;;;;5031770;28;20021;-70
2021/04/10 05:36:58;;;;;;;8.10;2.78;;;5.70;86.40;;;;;;5030544;28;20567;-70
2021/04/10 05:39:23;;;;;;;13.70;3.53;;;5.70;86.50;;;;;;5033067;28;20564;-70
2021/04/10 05:41:49;;;;;;;9.55;2.78;;;5.80;86.20;;;;;;5029954;28;20501;-70
2021/04/10 05:44:15;;;;;;;9.13;2.50;;;5.70;86.30;;;;;;5030422;28;20144;-70
2021/04/10 05:46:44;;;;;;;13.13;3.00;;;5.70;86.00;;;;;;5031445;28;20026;-69
2021/04/10 05:49:09;;;;;;;8.23;2.30;;;5.80;85.70;;;;;;5029058;28;20076;-70
2021/04/10 05:51:35;;;;;;;9.10;2.60;;;5.70;85.80;;;;;;5029069;28;20053;-70
2021/04/10 05:54:01;;;;;;;12.88;3.28;;;5.70;85.30;;;;;;5029568;28;20037;-70
2021/04/10 05:56:27;;;;;;;12.13;2.88;;;5.70;84.90;;;;;;5031986;28;20089;-70
2021/04/10 05:58:52;;;;;;;13.50;2.80;;;5.70;84.50;;;;;;5030499;28;23783;-70
2021/04/10 06:01:18;;;;;;;18.90;3.20;;;5.70;84.40;;;;;;5029528;28;20028;-70
2021/04/10 06:03:44;;;;;;;11.93;3.13;;;5.70;84.40;;;;;;5029836;28;20219;-70
2021/04/10 06:06:11;;;;;;;12.32;2.70;;;5.80;82.50;;;;;;5027324;28;20219;-70
2021/04/10 06:08:37;;;;;;;12.32;2.60;;;5.80;82.80;;;;;;5030586;28;20029;-70
2021/04/10 06:11:03;;;;;;;11.23;2.97;;;5.70;82.20;;;;;;5030080;28;20548;-70
2021/04/10 06:13:28;;;;;;;12.50;2.30;;;5.70;82.70;;;;;;5029177;28;20394;-70
2021/04/10 06:15:54;;;;;;;13.40;3.78;;;5.70;82.30;;;;;;5030146;28;20064;-70
2021/04/10 06:18:20;;;;;;;9.40;2.05;;;5.60;81.40;;;;;;5028927;28;20091;-70
2021/04/10 06:20:46;;;;;;;12.40;3.17;;;5.70;81.20;;;;;;5028913;28;20041;-70
2021/04/10 06:23:11;;;;;;;8.57;2.45;;;5.60;81.40;;;;;;5030497;28;20033;-70
2021/04/10 06:25:37;;;;;;;10.73;2.80;;;5.60;81.80;;;;;;5029707;28;20030;-70
2021/04/10 06:28:04;;;;;;;10.27;2.50;;;5.70;81.90;;;;;;5030262;28;20068;-70
2021/04/10 06:30:30;;;;;;;10.27;2.30;;;5.70;82.00;;;;;;5028983;28;20112;-70
2021/04/10 06:32:55;;;;;;;10.30;3.15;;;5.70;80.70;;;;;;5029357;28;20114;-70
2021/04/10 06:35:22;;;;;;;7.60;2.00;;;5.70;80.70;;;;;;5028748;28;20037;-70
2021/04/10 06:37:47;;;;;;;11.05;2.53;;;5.70;79.70;;;;;;5030732;28;20029;-70
2021/04/10 06:40:13;;;;;;;16.20;2.38;;;5.70;80.00;;;;;;5029272;28;20029;-70
2021/04/10 06:42:42;;;;;;;13.48;2.42;;;5.70;79.40;;;;;;5030377;28;20030;-70
2021/04/10 06:45:08;;;;;;;11.40;2.28;;;5.70;79.20;;;;;;5028539;28;20025;-71
2021/04/10 06:47:34;;;;;;;9.07;2.30;;;5.70;79.20;;;;;;5011959;28;20148;-71
2021/04/10 06:50:02;;;;;;;8.35;2.20;;;5.70;79.00;;;;;;5028905;28;20148;-71
2021/04/10 06:52:28;;;;;;;17.38;3.58;;;5.70;79.50;;;;;;5029667;28;20502;-71
2021/04/10 06:55:03;;;;;;;9.82;2.10;;;5.80;79.30;;;;;;5028555;28;20048;-70
2021/04/10 06:57:35;;;;;;;11.55;2.28;;;5.80;79.70;;;;;;5029079;28;20136;-71
2021/04/10 07:00:09;;;;;;;9.02;2.00;;;5.80;78.90;;;;;;5025189;28;20037;-71
2021/04/10 07:02:37;;;;;;;12.60;1.88;;;5.80;77.80;;;;;;5027881;28;20025;-71
2021/04/10 07:05:03;;;;;;;11.98;3.00;;;5.90;77.60;;;;;;5028012;28;20033;-71
2021/04/10 07:07:29;;;;;;;11.13;2.58;;;5.90;78.10;;;;;;5027634;28;20033;-71
2021/04/10 07:09:56;;;;;;;11.70;2.20;;;5.90;77.60;;;;;;5025408;28;20389;-70
2021/04/10 07:12:21;;;;;;;19.05;2.13;;;5.90;77.60;;;;;;5028962;28;20033;-70
2021/04/10 07:14:47;;;;;;;4.82;1.38;;;6.00;77.30;;;;;;5027641;28;20407;-69
2021/04/10 07:17:14;;;;;;;13.73;2.83;;;6.00;76.70;;;;;;5027808;28;20033;-70
2021/04/10 07:19:40;;;;;;;8.02;1.40;;;6.00;75.60;;;;;;5029063;28;20029;-69
2021/04/10 07:22:07;;;;;;;8.70;1.98;;;6.00;74.10;;;;;;5031498;28;20529;-70
2021/04/10 07:24:47;;;;;;;16.05;1.80;;;6.10;72.40;;;;;;5030094;28;20030;-71
2021/04/10 07:27:21;;;;;;;6.13;1.70;;;6.10;72.50;;;;;;5028069;28;20034;-70
2021/04/10 07:29:49;;;;;;;6.35;1.75;;;6.00;72.90;;;;;;5028631;28;20033;-70
2021/04/10 07:32:34;;;;;;;10.68;2.42;;;6.10;73.40;;;;;;5028501;28;20038;-71
2021/04/10 07:35:05;;;;;;;8.70;1.58;;;6.10;71.90;;;;;;5029390;28;20371;-71
2021/04/10 07:37:41;;;;;;;8.40;1.48;;;6.10;72.20;;;;;;5011489;28;20364;-71
2021/04/10 07:40:12;;;;;;;10.82;1.83;;;6.20;71.50;;;;;;5029136;28;20029;-70
2021/04/10 07:42:40;;;;;;;7.07;1.83;;;6.20;69.90;;;;;;5031630;28;20037;-71
2021/04/10 07:45:29;;;;;;;11.35;1.63;;;6.20;70.20;;;;;;5033746;28;20419;-70
2021/04/10 07:48:04;;;;;;;10.60;1.67;;;6.20;71.10;;;;;;5031307;28;20491;-69
2021/04/10 07:50:33;;;;;;;9.07;1.75;;;6.20;72.10;;;;;;5028670;28;20037;-71
2021/04/10 07:53:21;;;;;;;9.35;1.90;;;6.30;71.50;;;;;;5029096;28;20034;-70
2021/04/10 07:55:48;;;;;;;13.13;2.15;;;6.40;73.20;;;;;;5029920;28;20026;-70
2021/04/10 07:58:20;;;;;;;10.73;1.50;;;6.50;71.30;;;;;;5029809;28;20040;-70
2021/04/10 08:00:46;;;;;;;11.25;1.33;;;6.60;68.70;;;;;;5026388;28;20026;-70
2021/04/10 08:03:35;;;;;;;7.15;1.73;;;6.60;69.00;;;;;;5028816;28;20557;-69
2021/04/10 08:06:22;;;;;;;10.10;2.53;;;6.50;69.80;;;;;;5031014;28;20033;-70
2021/04/10 08:08:55;;;;;;;8.00;1.50;;;6.60;69.90;;;;;;5028434;28;20025;-69
2021/04/10 08:11:32;;;;;;;7.30;1.90;;;6.50;69.80;;;;;;5030644;28;20607;-69
2021/04/10 08:14:07;;;;;;;7.00;1.63;;;6.60;69.10;;;;;;5032380;28;20044;-69
2021/04/10 08:16:39;;;;;;;11.93;2.33;;;6.60;70.30;;;;;;5030322;28;20030;-69
2021/04/10 08:19:04;;;;;;;;;;;6.60;70.10;;;;;;5011085;28;20126;-69
2021/04/10 08:21:30;;;;;;;5.95;1.38;;;6.60;68.80;;;;;;5028232;28;19948;-69
2021/04/10 08:23:56;;;;;;;10.88;1.60;;;6.60;69.30;;;;;;5031071;28;20135;-70
2021/04/10 08:26:22;;;;;;;9.52;1.75;;;6.60;69.50;;;;;;5030942;28;20044;-69
2021/04/10 08:28:48;;;;;;;7.45;1.77;;;6.70;67.00;;;;;;5030366;28;20465;-69
2021/04/10 08:31:15;;;;;;;10.82;2.13;;;6.60;67.10;;;;;;5032616;28;20040;-69
2021/04/10 08:33:41;;;;;;;8.82;1.58;;;6.70;68.70;;;;;;5027625;28;20479;-69
2021/04/10 08:36:11;;;;;;;6.43;1.30;;;6.80;67.00;;;;;;5030284;28;20087;-69
2021/04/10 08:38:39;;;;;;;12.48;1.85;;;6.80;66.70;;;;;;5030236;28;20815;-69
2021/04/10 08:41:08;;;;;;;7.20;1.73;;;6.90;66.20;;;;;;5010061;28;20029;-69
2021/04/10 08:43:38;;;;;;;5.18;1.60;;;6.80;67.80;;;;;;5026825;28;20033;-69
2021/04/10 08:46:06;;;;;;;5.30;1.10;;;6.90;68.10;;;;;;5028009;28;20045;-69
2021/04/10 08:48:33;;;;;;;8.57;1.30;;;7.00;67.70;;;;;;5027980;28;20087;-68
2021/04/10 08:51:03;;;;;;;9.75;1.83;;;6.90;68.40;;;;;;5026112;28;20042;-71
2021/04/10 08:53:36;;;;;;;8.70;1.60;;;7.10;65.20;;;;;;5029309;28;20052;-69
2021/04/10 08:56:08;;;;;;;4.47;1.42;;;7.00;67.20;;;;;;5020877;28;20042;-69
2021/04/10 08:58:35;;;;;;;7.60;1.60;;;7.00;67.90;;;;;;5009651;28;20386;-70
2021/04/10 09:01:03;;;;;;;11.20;1.38;;;7.10;67.80;;;;;;5025320;28;20038;-69
2021/04/10 09:03:49;;;;;;;5.97;1.75;;;7.20;67.30;;;;;;5021091;28;20029;-69
2021/04/10 09:06:22;;;;;;;8.05;1.65;;;7.20;65.80;;;;;;5026698;28;20033;-71
2021/04/10 09:08:47;;;;;;;7.32;2.03;;;7.20;66.60;;;;;;5024443;28;20398;-67
2021/04/10 09:11:22;;;;;;;8.30;1.40;;;7.30;67.20;;;;;;5024246;28;20036;-70
2021/04/10 09:13:53;;;;;;;7.60;1.50;;;7.30;66.40;;;;;;5027357;28;20368;-70
2021/04/10 09:16:40;;;;;;;9.40;1.50;;;7.40;65.20;;;;;;5027957;28;20556;-69
2021/04/10 09:19:28;;;;;;;7.32;1.58;;;7.40;64.30;;;;;;5023442;28;20164;-70
2021/04/10 09:21:59;;;;;;;6.30;1.38;;;7.50;64.00;;;;;;5025242;28;20509;-72
2021/04/10 09:24:42;;;;;;;8.80;1.30;;;7.50;64.80;;;;;;5026560;28;20026;-69
2021/04/10 09:27:40;;;;;;;8.23;1.40;;;7.60;62.70;;;;;;5027780;28;20060;-68
2021/04/10 09:30:06;;;;;;;9.43;2.03;;;7.70;60.70;;;;;;4993624;28;20048;-69
2021/04/10 09:32:40;;;;;;;7.53;1.55;;;7.80;60.40;;;;;;5027595;28;20029;-69
2021/04/10 09:35:15;;;;;;;9.25;1.77;;;7.70;60.80;;;;;;5027651;28;20061;-69
2021/04/10 09:37:40;;;;;;;10.68;1.60;;;7.70;60.80;;;;;;5025441;28;20067;-71
2021/04/10 09:40:17;;;;;;;5.57;1.25;;;7.70;62.10;;;;;;5026485;28;20057;-69
2021/04/10 09:42:48;;;;;;;7.30;1.83;;;7.80;61.70;;;;;;5027885;28;20052;-70
2021/04/10 09:45:22;;;;;;;5.68;1.45;;;7.80;61.20;;;;;;5027944;28;20387;-70
2021/04/10 09:48:00;;;;;;;6.55;1.45;;;7.90;60.80;;;;;;5026387;28;20057;-67
2021/04/10 09:50:28;;;;;;;6.90;1.33;;;7.90;60.30;;;;;;5027470;28;20028;-69
2021/04/10 09:52:58;;;;;;;5.78;1.35;;;8.00;58.20;;;;;;5025934;28;20037;-69
2021/04/10 09:55:25;;;;;;;7.00;1.10;;;8.00;59.60;;;;;;5024901;28;20067;-67
2021/04/10 09:57:55;;;;;;;7.82;1.33;;;8.10;58.60;;;;;;5041810;28;20029;-68
2021/04/10 10:00:32;;;;;;;4.13;0.90;;;8.10;60.10;;;;;;5030064;28;20446;-68
2021/04/10 10:02:59;;;;;;;6.80;1.42;;;8.20;60.90;;;;;;5030614;28;20032;-70
2021/04/10 10:05:31;;;;;;;8.52;1.45;;;8.20;61.40;;;;;;5029869;28;20025;-68
2021/04/10 10:08:00;;;;;;;;;;;8.30;60.90;;;;;;5028880;28;20478;-70
2021/04/10 10:10:34;;;;;;;4.60;1.30;;;8.40;61.20;;;;;;5026586;28;20011;-68
2021/04/10 10:13:01;;;;;;;4.78;1.10;;;8.40;59.20;;;;;;5028522;28;20487;-67
2021/04/10 10:15:27;;;;;;;6.95;1.55;;;8.50;57.20;;;;;;5028603;28;20033;-69
2021/04/10 10:17:53;;;;;;;10.23;1.70;;;8.50;57.80;;;;;;5027717;28;20025;-70
2021/04/10 10:20:19;;;;;;;4.07;1.00;;;8.50;56.10;;;;;;5023525;28;20112;-69
2021/04/10 10:22:45;;;;;;;6.18;1.40;;;8.60;56.30;;;;;;5023413;28;20418;-68
2021/04/10 10:25:11;;;;;;;6.57;1.30;;;8.60;56.60;;;;;;5024617;28;20036;-68
2021/04/10 10:27:40;;;;;;;8.57;1.77;;;8.50;55.30;;;;;;5007516;28;20489;-69
2021/04/10 10:30:18;;;;;;;4.95;1.08;;;8.50;54.90;;;;;;5028309;28;20037;-69
2021/04/10 10:32:48;;;;;;;5.47;1.55;;;8.50;54.30;;;;;;5028470;28;20041;-68
2021/04/10 10:35:16;;;;;;;5.90;1.50;;;8.60;54.80;;;;;;5028733;28;20029;-67
2021/04/10 10:37:51;;;;;;;6.38;1.27;;;8.60;54.20;;;;;;5028607;28;20415;-68
2021/04/10 10:40:28;;;;;;;8.85;1.73;;;8.70;52.30;;;;;;5029981;28;20056;-67
2021/04/10 10:43:08;;;;;;;6.40;1.60;;;8.60;54.10;;;;;;5035440;28;20037;-68
2021/04/10 10:45:49;;;;;;;5.22;1.27;;;8.70;55.20;;;;;;5026888;28;20061;-68
2021/04/10 10:48:31;;;;;;;;;;;8.80;54.50;;;;;;5027860;28;20661;-69
2021/04/10 10:51:00;;;;;;;6.40;1.40;;;8.80;53.70;;;;;;5029235;28;19916;-68
2021/04/10 10:53:30;;;;;;;7.35;1.40;;;8.80;53.20;;;;;;5030775;28;20049;-68
2021/04/10 10:55:58;;;;;;;7.60;1.73;;;8.80;52.30;;;;;;5028816;28;20668;-69
2021/04/10 10:58:24;;;;;;;7.35;1.70;;;8.90;52.40;;;;;;5026629;28;20033;-68
2021/04/10 11:00:52;;;;;;;7.10;1.85;;;8.90;52.90;;;;;;5025235;28;20029;-68
2021/04/10 11:03:22;;;;;;;6.25;1.48;;;9.00;53.50;;;;;;5026682;28;20087;-68
2021/04/10 11:05:49;;;;;;;4.30;1.58;;;9.20;51.90;;;;;;5030100;28;20025;-68
2021/04/10 11:08:19;;;;;;;8.35;2.03;;;9.20;54.20;;;;;;5029591;28;20112;-69
2021/04/10 11:10:46;;;;;;;8.98;1.85;;;9.10;52.70;;;;;;5027047;28;20048;-69
2021/04/10 11:13:17;;;;;;;6.53;1.30;;;9.10;52.10;;;;;;5030347;28;20391;-69
2021/04/10 11:15:44;;;;;;;4.03;1.50;;;9.30;51.60;;;;;;5030146;28;20033;-69
2021/04/10 11:18:31;;;;;;;6.95;1.52;;;9.60;52.50;;;;;;5029131;28;20385;-69
2021/04/10 11:21:18;;;;;;;4.80;1.73;;;10.10;53.20;;;;;;5028971;28;20033;-68
2021/04/10 11:23:59;;;;;;;6.13;1.30;;;10.50;50.10;;;;;;5028465;28;20152;-68
2021/04/10 11:26:50;;;;;;;6.20;1.52;;;11.30;46.60;;;;;;5025975;28;20159;-70
2021/04/10 11:29:17;;;;;;;6.78;1.50;;;11.60;45.20;;;;;;5029723;28;20037;-69
2021/04/10 11:31:44;;;;;;;6.15;1.38;;;11.60;45.60;;;;;;5028227;28;20093;-68
2021/04/10 11:34:29;;;;;;;3.75;1.20;;;11.40;46.00;;;;;;5029764;28;20029;-69
2021/04/10 11:36:56;;;;;;;7.05;1.52;;;11.40;44.90;;;;;;5029880;28;20029;-69
2021/04/10 11:39:22;;;;;;;6.20;1.27;;;11.30;46.20;;;;;;5029706;28;20033;-69
2021/04/10 11:41:48;;;;;;;8.45;1.77;;;11.40;47.30;;;;;;5029442;28;20026;-69
2021/04/10 11:44:15;;;;;;;5.75;1.38;;;11.50;46.10;;;;;;5030363;28;20104;-69
2021/04/10 11:46:41;;;;;;;4.80;1.30;;;11.70;45.60;;;;;;5029326;28;20029;-69
2021/04/10 11:49:07;;;;;;;8.23;1.60;;;11.80;44.50;;;;;;5030713;28;20161;-69
2021/04/10 11:51:33;;;;;;;5.30;1.77;;;12.00;45.20;;;;;;5029114;28;20025;-69
2021/04/10 11:54:02;;;;;;;7.68;1.50;;;12.40;41.60;;;;;;5028502;28;20039;-70
2021/04/10 11:56:31;;;;;;;8.02;1.42;;;12.60;41.40;;;;;;5029444;28;20510;-69
2021/04/10 11:59:07;;;;;;;8.68;1.88;;;12.40;42.00;;;;;;5027862;28;20483;-69
2021/04/10 12:01:33;;;;;;;5.22;1.35;;;12.20;39.20;;;;;;5032194;28;20026;-69
2021/04/10 12:04:03;;;;;;;6.90;1.65;;;12.00;42.30;;;;;;5024680;28;20393;-69
2021/04/10 12:06:37;;;;;;;5.37;1.20;;;12.00;41.90;;;;;;5030854;28;20025;-69
2021/04/10 12:09:08;;;;;;;6.93;1.50;;;12.10;41.30;;;;;;5029152;28;20040;-68
2021/04/10 12:11:36;;;;;;;4.38;1.52;;;12.10;43.20;;;;;;5027960;28;20033;-69
2021/04/10 12:14:06;;;;;;;8.90;1.88;;;12.20;42.60;;;;;;5028408;28;20061;-69
2021/04/10 12:16:36;;;;;;;6.10;1.87;;;12.10;44.70;;;;;;5029251;28;20065;-68
2021/04/10 12:19:02;;;;;;;4.57;1.40;;;12.10;43.60;;;;;;5007567;28;20705;-69
2021/04/10 12:21:28;;;;;;;5.57;1.60;;;12.10;41.10;;;;;;5025228;28;20037;-68
2021/04/10 12:23:54;;;;;;;3.63;1.10;;;12.20;42.80;;;;;;5027941;28;20387;-69
2021/04/10 12:26:20;;;;;;;5.80;1.67;;;12.20;43.50;;;;;;5026534;28;20021;-68
2021/04/10 12:28:45;;;;;;;6.15;1.98;;;12.10;43.00;;;;;;5028100;28;20037;-69
2021/04/10 12:31:11;;;;;;;4.82;2.05;;;12.10;42.80;;;;;;5009619;28;20041;-69
2021/04/10 12:33:38;;;;;;;5.53;1.23;;;12.10;43.40;;;;;;5005896;28;20060;-69
2021/04/10 12:36:05;;;;;;;5.85;1.77;;;12.20;44.20;;;;;;5028759;28;20080;-69
2021/04/10 12:38:30;;;;;;;5.07;1.40;;;12.30;43.60;;;;;;5026813;28;20025;-69
2021/04/10 12:40:56;;;;;;;4.82;1.60;;;12.40;44.40;;;;;;5027253;28;20037;-69
2021/04/10 12:43:22;;;;;;;6.68;1.80;;;12.50;44.10;;;;;;5027861;28;20048;-68
2021/04/10 12:45:48;;;;;;;7.45;1.63;;;12.70;43.80;;;;;;5011054;28;20048;-69
2021/04/10 12:48:13;;;;;;;7.95;1.77;;;12.70;42.70;;;;;;5028580;28;20086;-69
2021/04/10 12:50:39;;;;;;;6.07;1.90;;;13.00;41.40;;;;;;5028094;28;20552;-69
2021/04/10 12:53:07;;;;;;;6.30;1.40;;;13.00;41.40;;;;;;5029340;28;20475;-69
2021/04/10 12:55:33;;;;;;;6.93;1.40;;;12.90;41.80;;;;;;5026787;28;20049;-69
2021/04/10 12:57:59;;;;;;;6.05;1.85;;;12.70;42.50;;;;;;5028573;28;20588;-69
2021/04/10 13:00:25;;;;;;;5.47;1.60;;;12.70;43.40;;;;;;5007253;28;20064;-69